CheckWX is a tool to help pilots better visualize weather data.  It is not intended as a substitute for an official pre-flight weather briefing.

03:23:04 UTC

SLLP TAF
El Alto International Airport
La Paz / El Alto, Bolivia
TAF SLLP 152200Z 1600/1624 06008KT 9999 SCT015 FEW017CB TX16/1620Z TN05/1610Z TEMPO 1602/1604 33012KT SHRA BECMG 1605/1607 3000E VCFG BECMG 1611/1614 13010KT 9999 NSW TEMPO 1618/1622 TSRA

Dec-16@
00:00 UTC

Dec-16 @ 00:00 UTC

Dec-16@
05:00 UTC

Dec-16 @ 05:00 UTC

TAF SLLP 152200Z 1600/1624 06008KT 9999 SCT015 FEW017CB TX16/1620Z TN05/1610Z
Wind
  • 060° at 8 KTS
Cloud Levels
  • Scattered at 1,500' AGL
  • Few at 1,700' AGL

Dec-16@
02:00 UTC

Dec-16 @ 02:00 UTC

Dec-16@
04:00 UTC

Dec-16 @ 04:00 UTC

TEMPO 1602/1604 33012KT SHRA

Temporary

Temporary Changes expected for less than half the time period

Wind
  • 330° at 12 KTS
Conditions
Rain

Dec-16@
05:00 UTC

Dec-16 @ 05:00 UTC

Dec-16@
11:00 UTC

Dec-16 @ 11:00 UTC

BECMG 1605/1607 3000E VCFG

Becoming

Becoming Conditions expected by Mon, Dec 16, 2019 @ 07:00 UTC

Wind
  • 060° at 8 KTS
Conditions
Area Fog
Cloud Levels
  • Scattered at 1,500' AGL
  • Few at 1,700' AGL

Dec-16@
11:00 UTC

Dec-16 @ 11:00 UTC

Dec-17@
00:00 UTC

Dec-17 @ 00:00 UTC

BECMG 1611/1614 13010KT 9999 NSW

Becoming

Becoming Conditions expected by Mon, Dec 16, 2019 @ 14:00 UTC

Wind
  • 130° at 10 KTS
Conditions
No significant weather
Cloud Levels
  • Scattered at 1,500' AGL
  • Few at 1,700' AGL

Dec-16@
18:00 UTC

Dec-16 @ 18:00 UTC

Dec-16@
22:00 UTC

Dec-16 @ 22:00 UTC

TEMPO 1618/1622 TSRA

Temporary

Temporary Changes expected for less than half the time period

Conditions
Thunderstorm, Rain